sensor_id;sensor_type;location;lat;lon;timestamp;P1;durP1;ratioP1;P2;durP2;ratioP2
78668;SDS011;67984;45.118;20.724;2023-04-25T00:08:40;25.17;;;15.70;;
78668;SDS011;67984;45.118;20.724;2023-04-25T00:18:42;33.13;;;19.13;;
78668;SDS011;67984;45.118;20.724;2023-04-25T00:28:43;34.20;;;20.58;;
78668;SDS011;67984;45.118;20.724;2023-04-25T00:38:43;34.83;;;20.27;;
78668;SDS011;67984;45.118;20.724;2023-04-25T00:48:44;42.43;;;22.50;;
78668;SDS011;67984;45.118;20.724;2023-04-25T00:58:45;43.05;;;23.42;;
78668;SDS011;67984;45.118;20.724;2023-04-25T01:08:46;37.77;;;22.17;;
78668;SDS011;67984;45.118;20.724;2023-04-25T01:18:47;41.42;;;22.40;;
78668;SDS011;67984;45.118;20.724;2023-04-25T01:28:48;48.47;;;25.75;;
78668;SDS011;67984;45.118;20.724;2023-04-25T01:38:49;33.30;;;18.33;;
78668;SDS011;67984;45.118;20.724;2023-04-25T01:48:50;31.20;;;18.80;;
78668;SDS011;67984;45.118;20.724;2023-04-25T01:58:51;25.17;;;15.37;;
78668;SDS011;67984;45.118;20.724;2023-04-25T02:08:55;23.45;;;13.68;;
78668;SDS011;67984;45.118;20.724;2023-04-25T02:18:55;19.15;;;11.43;;
78668;SDS011;67984;45.118;20.724;2023-04-25T02:28:56;16.90;;;10.40;;
78668;SDS011;67984;45.118;20.724;2023-04-25T02:38:58;17.65;;;10.95;;
78668;SDS011;67984;45.118;20.724;2023-04-25T02:48:58;17.90;;;9.83;;
78668;SDS011;67984;45.118;20.724;2023-04-25T02:58:59;17.87;;;10.47;;
78668;SDS011;67984;45.118;20.724;2023-04-25T03:09:00;19.10;;;11.90;;
78668;SDS011;67984;45.118;20.724;2023-04-25T03:19:02;26.63;;;14.05;;
78668;SDS011;67984;45.118;20.724;2023-04-25T03:29:03;28.50;;;14.88;;
78668;SDS011;67984;45.118;20.724;2023-04-25T03:39:04;23.77;;;13.43;;
78668;SDS011;67984;45.118;20.724;2023-04-25T03:49:07;30.92;;;15.85;;
78668;SDS011;67984;45.118;20.724;2023-04-25T03:59:28;26.27;;;14.25;;
78668;SDS011;67984;45.118;20.724;2023-04-25T04:09:29;29.35;;;15.13;;
78668;SDS011;67984;45.118;20.724;2023-04-25T04:19:32;25.50;;;14.85;;
78668;SDS011;67984;45.118;20.724;2023-04-25T04:29:41;15.75;;;8.77;;
78668;SDS011;67984;45.118;20.724;2023-04-25T04:39:47;21.55;;;9.35;;
78668;SDS011;67984;45.118;20.724;2023-04-25T04:50:11;5.45;;;2.70;;
78668;SDS011;67984;45.118;20.724;2023-04-25T05:00:32;2.22;;;1.80;;
78668;SDS011;67984;45.118;20.724;2023-04-25T05:10:51;4.03;;;2.60;;
78668;SDS011;67984;45.118;20.724;2023-04-25T05:21:00;8.27;;;4.22;;
78668;SDS011;67984;45.118;20.724;2023-04-25T05:31:20;7.60;;;4.38;;
78668;SDS011;67984;45.118;20.724;2023-04-25T05:41:47;11.85;;;6.38;;
78668;SDS011;67984;45.118;20.724;2023-04-25T05:52:06;11.52;;;7.10;;
78668;SDS011;67984;45.118;20.724;2023-04-25T06:02:16;10.13;;;6.53;;
78668;SDS011;67984;45.118;20.724;2023-04-25T06:12:18;25.05;;;11.73;;
78668;SDS011;67984;45.118;20.724;2023-04-25T06:22:21;19.95;;;9.07;;
78668;SDS011;67984;45.118;20.724;2023-04-25T06:32:22;20.23;;;9.70;;
78668;SDS011;67984;45.118;20.724;2023-04-25T06:42:24;10.85;;;6.82;;
78668;SDS011;67984;45.118;20.724;2023-04-25T06:52:32;7.70;;;5.18;;
78668;SDS011;67984;45.118;20.724;2023-04-25T07:02:33;8.15;;;4.93;;
78668;SDS011;67984;45.118;20.724;2023-04-25T07:12:36;3.50;;;2.40;;
78668;SDS011;67984;45.118;20.724;2023-04-25T07:22:37;5.00;;;3.00;;
78668;SDS011;67984;45.118;20.724;2023-04-25T07:32:38;6.80;;;4.57;;
78668;SDS011;67984;45.118;20.724;2023-04-25T07:42:39;7.40;;;4.43;;
78668;SDS011;67984;45.118;20.724;2023-04-25T07:52:41;3.72;;;2.92;;
78668;SDS011;67984;45.118;20.724;2023-04-25T08:02:52;4.60;;;3.00;;
78668;SDS011;67984;45.118;20.724;2023-04-25T08:12:54;14.70;;;5.72;;
78668;SDS011;67984;45.118;20.724;2023-04-25T08:22:56;4.75;;;2.85;;
78668;SDS011;67984;45.118;20.724;2023-04-25T08:33:17;2.40;;;1.73;;
78668;SDS011;67984;45.118;20.724;2023-04-25T08:43:18;4.93;;;2.30;;
78668;SDS011;67984;45.118;20.724;2023-04-25T08:53:27;3.53;;;1.83;;
78668;SDS011;67984;45.118;20.724;2023-04-25T09:03:31;5.65;;;3.10;;
78668;SDS011;67984;45.118;20.724;2023-04-25T09:13:32;3.28;;;2.10;;
78668;SDS011;67984;45.118;20.724;2023-04-25T09:23:52;4.38;;;1.65;;
78668;SDS011;67984;45.118;20.724;2023-04-25T09:33:58;2.28;;;1.88;;
78668;SDS011;67984;45.118;20.724;2023-04-25T09:44:12;7.57;;;1.90;;
78668;SDS011;67984;45.118;20.724;2023-04-25T09:54:15;2.50;;;2.20;;
78668;SDS011;67984;45.118;20.724;2023-04-25T10:04:22;2.28;;;2.08;;
78668;SDS011;67984;45.118;20.724;2023-04-25T10:14:31;4.70;;;2.78;;
78668;SDS011;67984;45.118;20.724;2023-04-25T10:24:32;1.80;;;1.70;;
78668;SDS011;67984;45.118;20.724;2023-04-25T10:34:42;2.30;;;1.70;;
78668;SDS011;67984;45.118;20.724;2023-04-25T10:45:07;2.53;;;2.33;;
78668;SDS011;67984;45.118;20.724;2023-04-25T10:55:08;4.18;;;2.40;;
78668;SDS011;67984;45.118;20.724;2023-04-25T11:05:09;3.03;;;2.58;;
78668;SDS011;67984;45.118;20.724;2023-04-25T11:15:10;2.67;;;1.00;;
78668;SDS011;67984;45.118;20.724;2023-04-25T11:25:11;1.85;;;1.20;;
78668;SDS011;67984;45.118;20.724;2023-04-25T11:35:14;1.00;;;0.85;;
78668;SDS011;67984;45.118;20.724;2023-04-25T11:45:15;2.85;;;2.03;;
78668;SDS011;67984;45.118;20.724;2023-04-25T11:55:17;5.90;;;2.85;;
78668;SDS011;67984;45.118;20.724;2023-04-25T12:05:23;2.85;;;1.88;;
78668;SDS011;67984;45.118;20.724;2023-04-25T12:15:25;2.67;;;1.40;;
78668;SDS011;67984;45.118;20.724;2023-04-25T12:25:36;2.33;;;1.48;;
78668;SDS011;67984;45.118;20.724;2023-04-25T12:35:42;3.92;;;1.40;;
78668;SDS011;67984;45.118;20.724;2023-04-25T12:45:43;1.83;;;1.58;;
78668;SDS011;67984;45.118;20.724;2023-04-25T12:56:02;3.30;;;1.02;;
78668;SDS011;67984;45.118;20.724;2023-04-25T13:06:04;0.50;;;0.50;;
78668;SDS011;67984;45.118;20.724;2023-04-25T13:16:05;5.97;;;2.50;;
78668;SDS011;67984;45.118;20.724;2023-04-25T13:26:09;2.03;;;1.30;;
78668;SDS011;67984;45.118;20.724;2023-04-25T13:36:10;1.48;;;0.98;;
78668;SDS011;67984;45.118;20.724;2023-04-25T13:46:11;1.67;;;1.10;;
78668;SDS011;67984;45.118;20.724;2023-04-25T13:56:13;2.28;;;1.15;;
78668;SDS011;67984;45.118;20.724;2023-04-25T14:06:14;2.00;;;1.27;;
78668;SDS011;67984;45.118;20.724;2023-04-25T14:16:21;4.05;;;0.47;;
78668;SDS011;67984;45.118;20.724;2023-04-25T14:26:23;2.30;;;1.30;;
78668;SDS011;67984;45.118;20.724;2023-04-25T14:36:24;2.40;;;1.35;;
78668;SDS011;67984;45.118;20.724;2023-04-25T14:46:26;1.17;;;0.82;;
78668;SDS011;67984;45.118;20.724;2023-04-25T14:56:27;0.80;;;0.47;;
78668;SDS011;67984;45.118;20.724;2023-04-25T15:06:28;1.27;;;0.70;;
78668;SDS011;67984;45.118;20.724;2023-04-25T15:16:30;2.40;;;1.23;;
78668;SDS011;67984;45.118;20.724;2023-04-25T15:26:31;3.40;;;1.20;;
78668;SDS011;67984;45.118;20.724;2023-04-25T15:36:32;4.67;;;2.17;;
78668;SDS011;67984;45.118;20.724;2023-04-25T15:46:33;9.77;;;3.10;;
78668;SDS011;67984;45.118;20.724;2023-04-25T15:56:33;6.43;;;3.53;;
78668;SDS011;67984;45.118;20.724;2023-04-25T16:06:35;7.40;;;2.88;;
78668;SDS011;67984;45.118;20.724;2023-04-25T16:16:35;4.47;;;2.30;;
78668;SDS011;67984;45.118;20.724;2023-04-25T16:26:36;4.00;;;1.67;;
78668;SDS011;67984;45.118;20.724;2023-04-25T16:36:37;5.00;;;1.90;;
78668;SDS011;67984;45.118;20.724;2023-04-25T16:46:38;6.10;;;3.33;;
78668;SDS011;67984;45.118;20.724;2023-04-25T16:56:39;6.38;;;4.72;;
78668;SDS011;67984;45.118;20.724;2023-04-25T17:06:40;5.85;;;3.45;;
78668;SDS011;67984;45.118;20.724;2023-04-25T17:16:41;5.27;;;2.93;;
78668;SDS011;67984;45.118;20.724;2023-04-25T17:26:42;10.67;;;4.37;;
78668;SDS011;67984;45.118;20.724;2023-04-25T17:36:46;7.78;;;4.95;;
78668;SDS011;67984;45.118;20.724;2023-04-25T17:46:47;18.02;;;8.90;;
78668;SDS011;67984;45.118;20.724;2023-04-25T17:56:48;122.23;;;53.00;;
78668;SDS011;67984;45.118;20.724;2023-04-25T18:06:49;120.80;;;51.70;;
78668;SDS011;67984;45.118;20.724;2023-04-25T18:16:50;138.73;;;60.03;;
78668;SDS011;67984;45.118;20.724;2023-04-25T18:26:55;131.82;;;54.83;;
78668;SDS011;67984;45.118;20.724;2023-04-25T18:36:59;124.75;;;54.47;;
78668;SDS011;67984;45.118;20.724;2023-04-25T18:47:00;149.25;;;50.72;;
78668;SDS011;67984;45.118;20.724;2023-04-25T18:57:01;78.22;;;34.05;;
78668;SDS011;67984;45.118;20.724;2023-04-25T19:07:01;63.87;;;25.07;;
78668;SDS011;67984;45.118;20.724;2023-04-25T19:17:03;50.55;;;18.80;;
78668;SDS011;67984;45.118;20.724;2023-04-25T19:27:04;41.70;;;16.83;;
78668;SDS011;67984;45.118;20.724;2023-04-25T19:37:05;36.28;;;13.43;;
78668;SDS011;67984;45.118;20.724;2023-04-25T19:47:06;36.10;;;12.70;;
78668;SDS011;67984;45.118;20.724;2023-04-25T19:57:07;186.60;;;48.33;;
78668;SDS011;67984;45.118;20.724;2023-04-25T20:07:08;24.85;;;11.85;;
78668;SDS011;67984;45.118;20.724;2023-04-25T20:17:17;39.33;;;13.73;;
78668;SDS011;67984;45.118;20.724;2023-04-25T20:27:38;31.27;;;14.48;;
78668;SDS011;67984;45.118;20.724;2023-04-25T20:37:39;19.20;;;9.80;;
78668;SDS011;67984;45.118;20.724;2023-04-25T20:47:39;33.53;;;16.60;;
78668;SDS011;67984;45.118;20.724;2023-04-25T20:57:41;50.95;;;23.88;;
78668;SDS011;67984;45.118;20.724;2023-04-25T21:07:42;41.55;;;20.65;;
78668;SDS011;67984;45.118;20.724;2023-04-25T21:17:45;48.53;;;22.30;;
78668;SDS011;67984;45.118;20.724;2023-04-25T21:27:49;58.28;;;27.30;;
78668;SDS011;67984;45.118;20.724;2023-04-25T21:37:51;49.45;;;24.02;;
78668;SDS011;67984;45.118;20.724;2023-04-25T21:47:52;59.47;;;29.38;;
78668;SDS011;67984;45.118;20.724;2023-04-25T21:57:53;73.43;;;31.77;;
78668;SDS011;67984;45.118;20.724;2023-04-25T22:07:54;57.87;;;25.60;;
78668;SDS011;67984;45.118;20.724;2023-04-25T22:17:58;69.43;;;30.63;;
78668;SDS011;67984;45.118;20.724;2023-04-25T22:27:59;41.17;;;19.08;;
78668;SDS011;67984;45.118;20.724;2023-04-25T22:38:00;22.83;;;11.23;;
78668;SDS011;67984;45.118;20.724;2023-04-25T22:48:00;13.75;;;6.60;;
78668;SDS011;67984;45.118;20.724;2023-04-25T22:58:02;26.23;;;12.15;;
78668;SDS011;67984;45.118;20.724;2023-04-25T23:08:03;33.63;;;14.77;;
78668;SDS011;67984;45.118;20.724;2023-04-25T23:18:04;32.05;;;15.85;;
78668;SDS011;67984;45.118;20.724;2023-04-25T23:28:05;10.20;;;6.47;;
78668;SDS011;67984;45.118;20.724;2023-04-25T23:38:06;11.95;;;6.70;;
78668;SDS011;67984;45.118;20.724;2023-04-25T23:48:11;9.57;;;5.10;;
78668;SDS011;67984;45.118;20.724;2023-04-25T23:58:12;8.52;;;4.22;;
